sensor_id;sensor_type;location;lat;lon;timestamp;temperature;humidity
11140;DHT22;5624;49.388;11.350;2023-07-31T00:01:35;13.90;77.20
11140;DHT22;5624;49.388;11.350;2023-07-31T00:04:01;13.90;77.40
11140;DHT22;5624;49.388;11.350;2023-07-31T00:06:26;13.80;77.90
11140;DHT22;5624;49.388;11.350;2023-07-31T00:08:52;13.70;78.70
11140;DHT22;5624;49.388;11.350;2023-07-31T00:11:17;13.60;79.30
11140;DHT22;5624;49.388;11.350;2023-07-31T00:13:43;13.60;79.90
11140;DHT22;5624;49.388;11.350;2023-07-31T00:16:08;13.50;80.00
11140;DHT22;5624;49.388;11.350;2023-07-31T00:18:34;13.40;80.30
11140;DHT22;5624;49.388;11.350;2023-07-31T00:20:59;13.30;81.00
11140;DHT22;5624;49.388;11.350;2023-07-31T00:23:24;13.10;81.80
11140;DHT22;5624;49.388;11.350;2023-07-31T00:25:50;13.00;82.50
11140;DHT22;5624;49.388;11.350;2023-07-31T00:28:16;12.90;83.20
11140;DHT22;5624;49.388;11.350;2023-07-31T00:30:41;12.80;83.80
11140;DHT22;5624;49.388;11.350;2023-07-31T00:33:06;12.80;84.20
11140;DHT22;5624;49.388;11.350;2023-07-31T00:35:32;12.80;84.70
11140;DHT22;5624;49.388;11.350;2023-07-31T00:37:58;12.80;84.50
11140;DHT22;5624;49.388;11.350;2023-07-31T00:40:24;12.70;85.40
11140;DHT22;5624;49.388;11.350;2023-07-31T00:42:49;12.80;85.60
11140;DHT22;5624;49.388;11.350;2023-07-31T00:45:15;12.80;84.80
11140;DHT22;5624;49.388;11.350;2023-07-31T00:47:40;13.00;83.70
11140;DHT22;5624;49.388;11.350;2023-07-31T00:50:07;12.90;84.70
11140;DHT22;5624;49.388;11.350;2023-07-31T00:52:33;13.00;84.50
11140;DHT22;5624;49.388;11.350;2023-07-31T00:54:59;13.00;85.10
11140;DHT22;5624;49.388;11.350;2023-07-31T00:57:24;12.80;85.60
11140;DHT22;5624;49.388;11.350;2023-07-31T00:59:50;12.70;86.40
11140;DHT22;5624;49.388;11.350;2023-07-31T01:02:15;12.90;85.70
11140;DHT22;5624;49.388;11.350;2023-07-31T01:04:42;12.80;86.50
11140;DHT22;5624;49.388;11.350;2023-07-31T01:07:27;12.70;87.20
11140;DHT22;5624;49.388;11.350;2023-07-31T01:10:04;12.60;87.60
11140;DHT22;5624;49.388;11.350;2023-07-31T01:12:33;12.50;87.90
11140;DHT22;5624;49.388;11.350;2023-07-31T01:15:07;12.40;88.80
11140;DHT22;5624;49.388;11.350;2023-07-31T01:17:37;12.40;89.50
11140;DHT22;5624;49.388;11.350;2023-07-31T01:20:26;12.30;90.00
11140;DHT22;5624;49.388;11.350;2023-07-31T01:23:22;12.20;90.10
11140;DHT22;5624;49.388;11.350;2023-07-31T01:29:01;12.20;90.90
11140;DHT22;5624;49.388;11.350;2023-07-31T01:31:29;12.10;91.10
11140;DHT22;5624;49.388;11.350;2023-07-31T01:33:59;12.10;91.30
11140;DHT22;5624;49.388;11.350;2023-07-31T01:36:25;12.10;91.80
11140;DHT22;5624;49.388;11.350;2023-07-31T01:38:51;12.20;91.90
11140;DHT22;5624;49.388;11.350;2023-07-31T01:41:20;12.20;92.10
11140;DHT22;5624;49.388;11.350;2023-07-31T01:43:46;12.30;92.30
11140;DHT22;5624;49.388;11.350;2023-07-31T01:46:12;12.30;92.20
11140;DHT22;5624;49.388;11.350;2023-07-31T01:48:37;12.30;92.20
11140;DHT22;5624;49.388;11.350;2023-07-31T01:51:03;12.40;92.30
11140;DHT22;5624;49.388;11.350;2023-07-31T01:53:30;12.50;91.90
11140;DHT22;5624;49.388;11.350;2023-07-31T01:55:56;12.50;90.20
11140;DHT22;5624;49.388;11.350;2023-07-31T01:58:21;12.60;89.50
11140;DHT22;5624;49.388;11.350;2023-07-31T02:00:47;12.70;89.10
11140;DHT22;5624;49.388;11.350;2023-07-31T02:03:12;12.80;88.20
11140;DHT22;5624;49.388;11.350;2023-07-31T02:05:45;12.90;87.70
11140;DHT22;5624;49.388;11.350;2023-07-31T02:08:11;12.90;87.40
11140;DHT22;5624;49.388;11.350;2023-07-31T02:10:36;12.90;87.10
11140;DHT22;5624;49.388;11.350;2023-07-31T02:13:02;13.00;87.10
11140;DHT22;5624;49.388;11.350;2023-07-31T02:15:32;13.00;87.00
11140;DHT22;5624;49.388;11.350;2023-07-31T02:17:58;13.10;87.10
11140;DHT22;5624;49.388;11.350;2023-07-31T02:20:23;13.10;87.10
11140;DHT22;5624;49.388;11.350;2023-07-31T02:22:49;13.20;86.40
11140;DHT22;5624;49.388;11.350;2023-07-31T02:25:14;13.20;86.50
11140;DHT22;5624;49.388;11.350;2023-07-31T02:27:40;13.20;86.40
11140;DHT22;5624;49.388;11.350;2023-07-31T02:30:06;13.20;87.10
11140;DHT22;5624;49.388;11.350;2023-07-31T02:32:32;13.30;86.90
11140;DHT22;5624;49.388;11.350;2023-07-31T02:34:57;13.30;86.30
11140;DHT22;5624;49.388;11.350;2023-07-31T02:37:23;13.40;85.50
11140;DHT22;5624;49.388;11.350;2023-07-31T02:39:48;13.30;85.50
11140;DHT22;5624;49.388;11.350;2023-07-31T02:42:14;13.40;86.20
11140;DHT22;5624;49.388;11.350;2023-07-31T02:44:40;13.40;86.10
11140;DHT22;5624;49.388;11.350;2023-07-31T02:47:05;13.40;86.40
11140;DHT22;5624;49.388;11.350;2023-07-31T02:49:31;13.30;87.40
11140;DHT22;5624;49.388;11.350;2023-07-31T02:51:57;13.30;88.50
11140;DHT22;5624;49.388;11.350;2023-07-31T02:54:22;13.20;88.90
11140;DHT22;5624;49.388;11.350;2023-07-31T02:56:48;13.30;86.60
11140;DHT22;5624;49.388;11.350;2023-07-31T02:59:14;13.30;86.50
11140;DHT22;5624;49.388;11.350;2023-07-31T03:01:40;13.40;86.50
11140;DHT22;5624;49.388;11.350;2023-07-31T03:04:05;13.40;85.40
11140;DHT22;5624;49.388;11.350;2023-07-31T03:06:31;13.50;85.70
11140;DHT22;5624;49.388;11.350;2023-07-31T03:08:56;13.60;86.00
11140;DHT22;5624;49.388;11.350;2023-07-31T03:11:22;13.60;85.70
11140;DHT22;5624;49.388;11.350;2023-07-31T03:13:47;13.70;84.90
11140;DHT22;5624;49.388;11.350;2023-07-31T03:16:13;13.70;84.90
11140;DHT22;5624;49.388;11.350;2023-07-31T03:18:38;13.80;83.20
11140;DHT22;5624;49.388;11.350;2023-07-31T03:21:04;13.80;83.10
11140;DHT22;5624;49.388;11.350;2023-07-31T03:23:30;13.80;83.10
11140;DHT22;5624;49.388;11.350;2023-07-31T03:26:00;13.80;83.30
11140;DHT22;5624;49.388;11.350;2023-07-31T03:28:26;13.80;82.80
11140;DHT22;5624;49.388;11.350;2023-07-31T03:30:52;13.90;82.50
11140;DHT22;5624;49.388;11.350;2023-07-31T03:33:18;13.90;81.60
11140;DHT22;5624;49.388;11.350;2023-07-31T03:35:44;13.90;82.90
11140;DHT22;5624;49.388;11.350;2023-07-31T03:38:09;13.90;82.20
11140;DHT22;5624;49.388;11.350;2023-07-31T03:40:35;13.90;81.40
11140;DHT22;5624;49.388;11.350;2023-07-31T03:43:00;13.90;81.90
11140;DHT22;5624;49.388;11.350;2023-07-31T03:45:26;14.00;82.00
11140;DHT22;5624;49.388;11.350;2023-07-31T03:47:51;14.00;81.70
11140;DHT22;5624;49.388;11.350;2023-07-31T03:50:17;14.00;81.90
11140;DHT22;5624;49.388;11.350;2023-07-31T03:52:42;14.00;81.40
11140;DHT22;5624;49.388;11.350;2023-07-31T03:55:08;14.00;81.20
11140;DHT22;5624;49.388;11.350;2023-07-31T03:57:33;14.00;81.00
11140;DHT22;5624;49.388;11.350;2023-07-31T03:59:59;14.10;82.30
11140;DHT22;5624;49.388;11.350;2023-07-31T04:02:25;14.00;82.10
11140;DHT22;5624;49.388;11.350;2023-07-31T04:04:50;13.90;82.80
11140;DHT22;5624;49.388;11.350;2023-07-31T04:07:16;13.90;83.60
11140;DHT22;5624;49.388;11.350;2023-07-31T04:09:41;14.00;82.80
11140;DHT22;5624;49.388;11.350;2023-07-31T04:12:07;14.00;82.50
11140;DHT22;5624;49.388;11.350;2023-07-31T04:14:32;14.10;81.50
11140;DHT22;5624;49.388;11.350;2023-07-31T04:16:58;14.10;82.50
11140;DHT22;5624;49.388;11.350;2023-07-31T04:19:24;14.20;81.40
11140;DHT22;5624;49.388;11.350;2023-07-31T04:21:49;14.30;80.80
11140;DHT22;5624;49.388;11.350;2023-07-31T04:24:15;14.30;81.50
11140;DHT22;5624;49.388;11.350;2023-07-31T04:26:41;14.40;81.70
11140;DHT22;5624;49.388;11.350;2023-07-31T04:29:06;14.40;80.30
11140;DHT22;5624;49.388;11.350;2023-07-31T04:31:33;14.40;81.70
11140;DHT22;5624;49.388;11.350;2023-07-31T04:33:58;14.50;80.50
11140;DHT22;5624;49.388;11.350;2023-07-31T04:36:24;14.60;80.20
11140;DHT22;5624;49.388;11.350;2023-07-31T04:38:49;14.60;79.50
11140;DHT22;5624;49.388;11.350;2023-07-31T04:41:15;14.70;78.60
11140;DHT22;5624;49.388;11.350;2023-07-31T04:43:40;14.80;77.90
11140;DHT22;5624;49.388;11.350;2023-07-31T04:46:06;14.80;79.10
11140;DHT22;5624;49.388;11.350;2023-07-31T04:48:32;14.80;78.40
11140;DHT22;5624;49.388;11.350;2023-07-31T04:50:57;14.90;78.30
11140;DHT22;5624;49.388;11.350;2023-07-31T04:53:23;14.90;78.40
11140;DHT22;5624;49.388;11.350;2023-07-31T04:55:49;14.90;79.20
11140;DHT22;5624;49.388;11.350;2023-07-31T04:58:14;14.90;79.00
11140;DHT22;5624;49.388;11.350;2023-07-31T05:00:40;15.00;78.40
11140;DHT22;5624;49.388;11.350;2023-07-31T05:03:05;15.00;78.20
11140;DHT22;5624;49.388;11.350;2023-07-31T05:05:32;15.10;77.60
11140;DHT22;5624;49.388;11.350;2023-07-31T05:07:57;15.20;76.60
11140;DHT22;5624;49.388;11.350;2023-07-31T05:10:23;15.30;77.20
11140;DHT22;5624;49.388;11.350;2023-07-31T05:12:48;15.40;76.10
11140;DHT22;5624;49.388;11.350;2023-07-31T05:15:14;15.50;76.50
11140;DHT22;5624;49.388;11.350;2023-07-31T05:17:40;15.60;75.60
11140;DHT22;5624;49.388;11.350;2023-07-31T05:20:06;15.80;76.20
11140;DHT22;5624;49.388;11.350;2023-07-31T05:22:31;16.00;75.80
11140;DHT22;5624;49.388;11.350;2023-07-31T05:24:57;16.20;74.60
11140;DHT22;5624;49.388;11.350;2023-07-31T05:27:22;16.40;73.40
11140;DHT22;5624;49.388;11.350;2023-07-31T05:29:48;16.50;74.80
11140;DHT22;5624;49.388;11.350;2023-07-31T05:32:13;16.50;73.20
11140;DHT22;5624;49.388;11.350;2023-07-31T05:34:39;16.30;73.30
11140;DHT22;5624;49.388;11.350;2023-07-31T05:37:05;16.10;74.30
11140;DHT22;5624;49.388;11.350;2023-07-31T05:39:31;16.10;74.00
11140;DHT22;5624;49.388;11.350;2023-07-31T05:41:56;16.00;74.10
11140;DHT22;5624;49.388;11.350;2023-07-31T05:44:22;16.00;73.30
11140;DHT22;5624;49.388;11.350;2023-07-31T05:46:47;16.00;74.60
11140;DHT22;5624;49.388;11.350;2023-07-31T05:49:13;16.00;75.70
11140;DHT22;5624;49.388;11.350;2023-07-31T05:51:38;16.10;74.80
11140;DHT22;5624;49.388;11.350;2023-07-31T05:54:04;16.10;74.60
11140;DHT22;5624;49.388;11.350;2023-07-31T05:56:30;16.10;74.20
11140;DHT22;5624;49.388;11.350;2023-07-31T05:58:56;16.20;74.20
11140;DHT22;5624;49.388;11.350;2023-07-31T06:01:22;16.20;75.10
11140;DHT22;5624;49.388;11.350;2023-07-31T06:03:48;16.40;73.90
11140;DHT22;5624;49.388;11.350;2023-07-31T06:06:13;16.40;72.50
11140;DHT22;5624;49.388;11.350;2023-07-31T06:08:39;16.50;72.90
11140;DHT22;5624;49.388;11.350;2023-07-31T06:11:05;16.70;72.80
11140;DHT22;5624;49.388;11.350;2023-07-31T06:13:31;16.80;71.60
11140;DHT22;5624;49.388;11.350;2023-07-31T06:15:56;17.00;70.90
11140;DHT22;5624;49.388;11.350;2023-07-31T06:18:22;17.20;70.30
11140;DHT22;5624;49.388;11.350;2023-07-31T06:20:48;17.40;70.40
11140;DHT22;5624;49.388;11.350;2023-07-31T06:23:19;17.60;69.00
11140;DHT22;5624;49.388;11.350;2023-07-31T06:25:44;17.90;68.10
11140;DHT22;5624;49.388;11.350;2023-07-31T06:28:10;18.10;65.70
11140;DHT22;5624;49.388;11.350;2023-07-31T06:30:35;18.20;66.30
11140;DHT22;5624;49.388;11.350;2023-07-31T06:33:01;18.10;66.10
11140;DHT22;5624;49.388;11.350;2023-07-31T06:35:26;18.10;67.60
11140;DHT22;5624;49.388;11.350;2023-07-31T06:37:52;18.00;66.80
11140;DHT22;5624;49.388;11.350;2023-07-31T06:40:17;18.00;66.10
11140;DHT22;5624;49.388;11.350;2023-07-31T06:42:43;18.00;66.00
11140;DHT22;5624;49.388;11.350;2023-07-31T06:45:09;18.10;66.20
11140;DHT22;5624;49.388;11.350;2023-07-31T06:47:35;18.20;66.40
11140;DHT22;5624;49.388;11.350;2023-07-31T06:50:00;18.20;65.40
11140;DHT22;5624;49.388;11.350;2023-07-31T06:52:26;18.50;65.70
11140;DHT22;5624;49.388;11.350;2023-07-31T06:55:17;18.80;63.90
11140;DHT22;5624;49.388;11.350;2023-07-31T06:57:56;19.20;62.60
11140;DHT22;5624;49.388;11.350;2023-07-31T07:00:23;19.80;62.90
11140;DHT22;5624;49.388;11.350;2023-07-31T07:02:49;20.40;59.90
11140;DHT22;5624;49.388;11.350;2023-07-31T07:05:16;21.00;59.00
11140;DHT22;5624;49.388;11.350;2023-07-31T07:07:42;21.00;58.60
11140;DHT22;5624;49.388;11.350;2023-07-31T07:10:08;21.30;57.20
11140;DHT22;5624;49.388;11.350;2023-07-31T07:12:34;21.60;57.50
11140;DHT22;5624;49.388;11.350;2023-07-31T07:15:00;21.70;55.30
11140;DHT22;5624;49.388;11.350;2023-07-31T07:17:27;21.90;54.60
11140;DHT22;5624;49.388;11.350;2023-07-31T07:19:53;22.10;54.10
11140;DHT22;5624;49.388;11.350;2023-07-31T07:22:18;22.50;53.80
11140;DHT22;5624;49.388;11.350;2023-07-31T07:24:44;22.80;53.20
11140;DHT22;5624;49.388;11.350;2023-07-31T07:27:10;23.10;51.40
11140;DHT22;5624;49.388;11.350;2023-07-31T07:29:35;23.30;53.90
11140;DHT22;5624;49.388;11.350;2023-07-31T07:32:01;23.40;51.90
11140;DHT22;5624;49.388;11.350;2023-07-31T07:34:27;23.10;51.10
11140;DHT22;5624;49.388;11.350;2023-07-31T07:36:54;23.00;50.90
11140;DHT22;5624;49.388;11.350;2023-07-31T07:39:19;22.70;51.30
11140;DHT22;5624;49.388;11.350;2023-07-31T07:41:46;22.70;52.10
11140;DHT22;5624;49.388;11.350;2023-07-31T07:44:12;22.90;50.90
11140;DHT22;5624;49.388;11.350;2023-07-31T07:46:38;23.10;51.20
11140;DHT22;5624;49.388;11.350;2023-07-31T07:49:04;23.20;51.20
11140;DHT22;5624;49.388;11.350;2023-07-31T07:51:30;23.20;51.00
11140;DHT22;5624;49.388;11.350;2023-07-31T07:53:57;23.00;52.20
11140;DHT22;5624;49.388;11.350;2023-07-31T07:56:23;22.70;50.90
11140;DHT22;5624;49.388;11.350;2023-07-31T07:58:49;22.40;52.00
11140;DHT22;5624;49.388;11.350;2023-07-31T08:01:15;22.30;52.70
11140;DHT22;5624;49.388;11.350;2023-07-31T08:03:41;22.20;53.30
11140;DHT22;5624;49.388;11.350;2023-07-31T08:06:07;22.60;54.10
11140;DHT22;5624;49.388;11.350;2023-07-31T08:08:34;23.10;50.90
11140;DHT22;5624;49.388;11.350;2023-07-31T08:11:00;23.20;51.00
11140;DHT22;5624;49.388;11.350;2023-07-31T08:13:25;23.20;51.50
11140;DHT22;5624;49.388;11.350;2023-07-31T08:15:51;23.30;50.20
11140;DHT22;5624;49.388;11.350;2023-07-31T08:18:17;23.00;50.30
11140;DHT22;5624;49.388;11.350;2023-07-31T08:20:43;23.00;49.60
11140;DHT22;5624;49.388;11.350;2023-07-31T08:23:09;22.70;51.10
11140;DHT22;5624;49.388;11.350;2023-07-31T08:25:35;22.80;51.10
11140;DHT22;5624;49.388;11.350;2023-07-31T08:28:01;23.40;53.10
11140;DHT22;5624;49.388;11.350;2023-07-31T08:30:27;24.30;49.40
11140;DHT22;5624;49.388;11.350;2023-07-31T08:32:52;24.70;48.00
11140;DHT22;5624;49.388;11.350;2023-07-31T08:35:18;24.60;45.90
11140;DHT22;5624;49.388;11.350;2023-07-31T08:37:43;25.00;46.80
11140;DHT22;5624;49.388;11.350;2023-07-31T08:40:09;25.50;47.10
11140;DHT22;5624;49.388;11.350;2023-07-31T08:42:46;25.90;46.80
11140;DHT22;5624;49.388;11.350;2023-07-31T08:45:17;26.00;43.90
11140;DHT22;5624;49.388;11.350;2023-07-31T08:47:48;26.40;46.00
11140;DHT22;5624;49.388;11.350;2023-07-31T08:50:15;26.50;43.70
11140;DHT22;5624;49.388;11.350;2023-07-31T08:52:41;26.60;44.20
11140;DHT22;5624;49.388;11.350;2023-07-31T08:55:07;26.70;43.80
11140;DHT22;5624;49.388;11.350;2023-07-31T08:57:35;26.80;42.80
11140;DHT22;5624;49.388;11.350;2023-07-31T09:00:02;27.00;44.20
11140;DHT22;5624;49.388;11.350;2023-07-31T09:02:35;26.70;41.70
11140;DHT22;5624;49.388;11.350;2023-07-31T09:05:03;26.90;43.30
11140;DHT22;5624;49.388;11.350;2023-07-31T09:07:30;27.00;45.00
11140;DHT22;5624;49.388;11.350;2023-07-31T09:09:57;26.70;42.70
11140;DHT22;5624;49.388;11.350;2023-07-31T09:12:22;26.10;41.80
11140;DHT22;5624;49.388;11.350;2023-07-31T09:14:48;25.30;43.50
11140;DHT22;5624;49.388;11.350;2023-07-31T09:17:13;25.20;46.50
11140;DHT22;5624;49.388;11.350;2023-07-31T09:19:39;25.70;45.70
11140;DHT22;5624;49.388;11.350;2023-07-31T09:22:06;26.10;44.30
11140;DHT22;5624;49.388;11.350;2023-07-31T09:24:33;26.50;42.30
11140;DHT22;5624;49.388;11.350;2023-07-31T09:27:00;26.90;41.50
11140;DHT22;5624;49.388;11.350;2023-07-31T09:29:27;27.10;42.20
11140;DHT22;5624;49.388;11.350;2023-07-31T09:31:53;27.70;42.40
11140;DHT22;5624;49.388;11.350;2023-07-31T09:34:21;28.10;39.60
11140;DHT22;5624;49.388;11.350;2023-07-31T09:36:53;27.70;40.10
11140;DHT22;5624;49.388;11.350;2023-07-31T09:39:19;27.60;41.20
11140;DHT22;5624;49.388;11.350;2023-07-31T09:41:54;27.70;41.90
11140;DHT22;5624;49.388;11.350;2023-07-31T09:44:20;27.60;40.90
11140;DHT22;5624;49.388;11.350;2023-07-31T09:46:46;27.60;39.10
11140;DHT22;5624;49.388;11.350;2023-07-31T09:49:13;28.00;39.80
11140;DHT22;5624;49.388;11.350;2023-07-31T09:51:41;27.90;40.80
11140;DHT22;5624;49.388;11.350;2023-07-31T09:54:10;28.20;41.20
11140;DHT22;5624;49.388;11.350;2023-07-31T09:56:47;28.10;38.40
11140;DHT22;5624;49.388;11.350;2023-07-31T09:59:20;28.00;38.00
11140;DHT22;5624;49.388;11.350;2023-07-31T10:01:46;28.00;40.30
11140;DHT22;5624;49.388;11.350;2023-07-31T10:04:13;27.40;40.40
11140;DHT22;5624;49.388;11.350;2023-07-31T10:06:40;27.00;42.50
11140;DHT22;5624;49.388;11.350;2023-07-31T10:09:09;27.40;41.20
11140;DHT22;5624;49.388;11.350;2023-07-31T10:11:47;26.50;41.20
11140;DHT22;5624;49.388;11.350;2023-07-31T10:14:19;26.10;42.60
11140;DHT22;5624;49.388;11.350;2023-07-31T10:16:45;25.40;42.00
11140;DHT22;5624;49.388;11.350;2023-07-31T10:19:11;24.90;44.20
11140;DHT22;5624;49.388;11.350;2023-07-31T10:21:37;24.90;47.20
11140;DHT22;5624;49.388;11.350;2023-07-31T10:24:04;25.20;44.90
11140;DHT22;5624;49.388;11.350;2023-07-31T10:26:31;25.30;45.40
11140;DHT22;5624;49.388;11.350;2023-07-31T10:28:58;25.10;44.50
11140;DHT22;5624;49.388;11.350;2023-07-31T10:31:24;24.90;45.50
11140;DHT22;5624;49.388;11.350;2023-07-31T10:33:51;25.00;44.70
11140;DHT22;5624;49.388;11.350;2023-07-31T10:36:19;24.70;45.10
11140;DHT22;5624;49.388;11.350;2023-07-31T10:38:45;24.70;44.80
11140;DHT22;5624;49.388;11.350;2023-07-31T10:41:11;25.10;47.10
11140;DHT22;5624;49.388;11.350;2023-07-31T10:43:38;25.30;47.70
11140;DHT22;5624;49.388;11.350;2023-07-31T10:46:07;25.90;44.70
11140;DHT22;5624;49.388;11.350;2023-07-31T10:48:35;26.50;44.20
11140;DHT22;5624;49.388;11.350;2023-07-31T10:51:10;26.60;43.50
11140;DHT22;5624;49.388;11.350;2023-07-31T10:53:36;27.00;43.80
11140;DHT22;5624;49.388;11.350;2023-07-31T10:56:03;26.60;43.30
11140;DHT22;5624;49.388;11.350;2023-07-31T10:58:30;26.00;44.40
11140;DHT22;5624;49.388;11.350;2023-07-31T11:01:01;26.60;44.40
11140;DHT22;5624;49.388;11.350;2023-07-31T11:03:47;26.70;42.60
11140;DHT22;5624;49.388;11.350;2023-07-31T11:06:17;26.40;40.60
11140;DHT22;5624;49.388;11.350;2023-07-31T11:08:48;26.40;43.10
11140;DHT22;5624;49.388;11.350;2023-07-31T11:11:15;25.90;43.50
11140;DHT22;5624;49.388;11.350;2023-07-31T11:13:53;25.90;44.40
11140;DHT22;5624;49.388;11.350;2023-07-31T11:16:22;25.60;44.10
11140;DHT22;5624;49.388;11.350;2023-07-31T11:18:48;25.80;44.90
11140;DHT22;5624;49.388;11.350;2023-07-31T11:21:16;26.30;43.30
11140;DHT22;5624;49.388;11.350;2023-07-31T11:23:46;26.20;43.30
11140;DHT22;5624;49.388;11.350;2023-07-31T11:26:12;26.30;44.70
11140;DHT22;5624;49.388;11.350;2023-07-31T11:28:38;26.20;42.80
11140;DHT22;5624;49.388;11.350;2023-07-31T11:31:05;26.00;43.20
11140;DHT22;5624;49.388;11.350;2023-07-31T11:33:33;25.90;42.20
11140;DHT22;5624;49.388;11.350;2023-07-31T11:35:59;25.30;45.30
11140;DHT22;5624;49.388;11.350;2023-07-31T11:38:29;24.90;46.40
11140;DHT22;5624;49.388;11.350;2023-07-31T11:41:00;24.80;46.00
11140;DHT22;5624;49.388;11.350;2023-07-31T11:43:28;24.60;46.00
11140;DHT22;5624;49.388;11.350;2023-07-31T11:45:58;24.50;45.40
11140;DHT22;5624;49.388;11.350;2023-07-31T11:48:28;24.20;46.40
11140;DHT22;5624;49.388;11.350;2023-07-31T11:50:57;24.20;46.60
11140;DHT22;5624;49.388;11.350;2023-07-31T11:53:30;24.10;46.40
11140;DHT22;5624;49.388;11.350;2023-07-31T11:55:58;24.10;47.50
11140;DHT22;5624;49.388;11.350;2023-07-31T11:58:24;24.30;48.50
11140;DHT22;5624;49.388;11.350;2023-07-31T12:00:51;24.40;47.50
11140;DHT22;5624;49.388;11.350;2023-07-31T12:03:18;24.50;47.50
11140;DHT22;5624;49.388;11.350;2023-07-31T12:05:43;24.60;47.20
11140;DHT22;5624;49.388;11.350;2023-07-31T12:08:10;24.40;47.90
11140;DHT22;5624;49.388;11.350;2023-07-31T12:10:37;24.40;48.10
11140;DHT22;5624;49.388;11.350;2023-07-31T12:13:09;24.80;50.90
11140;DHT22;5624;49.388;11.350;2023-07-31T12:15:45;25.20;46.70
11140;DHT22;5624;49.388;11.350;2023-07-31T12:18:13;25.20;47.10
11140;DHT22;5624;49.388;11.350;2023-07-31T12:20:53;25.00;45.60
11140;DHT22;5624;49.388;11.350;2023-07-31T12:23:21;25.00;46.00
11140;DHT22;5624;49.388;11.350;2023-07-31T12:28:47;24.30;47.60
11140;DHT22;5624;49.388;11.350;2023-07-31T12:33:43;23.80;47.80
11140;DHT22;5624;49.388;11.350;2023-07-31T12:36:13;23.90;48.10
11140;DHT22;5624;49.388;11.350;2023-07-31T12:38:40;24.10;47.00
11140;DHT22;5624;49.388;11.350;2023-07-31T12:41:05;24.50;49.70
11140;DHT22;5624;49.388;11.350;2023-07-31T12:43:38;24.70;46.90
11140;DHT22;5624;49.388;11.350;2023-07-31T12:46:04;24.80;47.90
11140;DHT22;5624;49.388;11.350;2023-07-31T12:48:31;25.00;46.80
11140;DHT22;5624;49.388;11.350;2023-07-31T12:50:57;24.80;47.10
11140;DHT22;5624;49.388;11.350;2023-07-31T12:53:22;24.90;48.30
11140;DHT22;5624;49.388;11.350;2023-07-31T12:55:48;24.90;46.70
11140;DHT22;5624;49.388;11.350;2023-07-31T12:58:13;25.10;47.90
11140;DHT22;5624;49.388;11.350;2023-07-31T13:00:39;25.20;46.30
11140;DHT22;5624;49.388;11.350;2023-07-31T13:03:05;25.00;45.30
11140;DHT22;5624;49.388;11.350;2023-07-31T13:05:30;25.00;46.50
11140;DHT22;5624;49.388;11.350;2023-07-31T13:07:56;24.80;44.20
11140;DHT22;5624;49.388;11.350;2023-07-31T13:10:25;24.70;44.60
11140;DHT22;5624;49.388;11.350;2023-07-31T13:12:52;24.60;46.30
11140;DHT22;5624;49.388;11.350;2023-07-31T13:15:18;24.50;46.10
11140;DHT22;5624;49.388;11.350;2023-07-31T13:17:43;24.60;46.20
11140;DHT22;5624;49.388;11.350;2023-07-31T13:20:09;24.40;46.50
11140;DHT22;5624;49.388;11.350;2023-07-31T13:22:35;24.20;47.50
11140;DHT22;5624;49.388;11.350;2023-07-31T13:25:00;23.80;47.70
11140;DHT22;5624;49.388;11.350;2023-07-31T13:27:26;23.90;47.20
11140;DHT22;5624;49.388;11.350;2023-07-31T13:29:52;23.80;49.00
11140;DHT22;5624;49.388;11.350;2023-07-31T13:32:18;23.90;48.30
11140;DHT22;5624;49.388;11.350;2023-07-31T13:34:45;24.00;48.00
11140;DHT22;5624;49.388;11.350;2023-07-31T13:37:11;23.90;47.60
11140;DHT22;5624;49.388;11.350;2023-07-31T13:39:36;23.90;47.70
11140;DHT22;5624;49.388;11.350;2023-07-31T13:42:06;23.90;47.80
11140;DHT22;5624;49.388;11.350;2023-07-31T13:44:34;23.90;48.80
11140;DHT22;5624;49.388;11.350;2023-07-31T13:47:00;24.10;48.10
11140;DHT22;5624;49.388;11.350;2023-07-31T13:49:26;24.40;49.40
11140;DHT22;5624;49.388;11.350;2023-07-31T13:51:51;24.60;47.30
11140;DHT22;5624;49.388;11.350;2023-07-31T13:54:17;24.70;47.00
11140;DHT22;5624;49.388;11.350;2023-07-31T13:56:43;24.50;46.50
11140;DHT22;5624;49.388;11.350;2023-07-31T13:59:09;24.30;47.20
11140;DHT22;5624;49.388;11.350;2023-07-31T14:01:35;24.30;48.70
11140;DHT22;5624;49.388;11.350;2023-07-31T14:04:00;24.10;46.80
11140;DHT22;5624;49.388;11.350;2023-07-31T14:06:26;24.10;48.40
11140;DHT22;5624;49.388;11.350;2023-07-31T14:08:51;24.20;48.00
11140;DHT22;5624;49.388;11.350;2023-07-31T14:11:17;24.20;47.80
11140;DHT22;5624;49.388;11.350;2023-07-31T14:13:43;23.90;47.60
11140;DHT22;5624;49.388;11.350;2023-07-31T14:16:08;23.80;47.60
11140;DHT22;5624;49.388;11.350;2023-07-31T14:18:34;23.70;47.40
11140;DHT22;5624;49.388;11.350;2023-07-31T14:20:59;23.60;48.40
11140;DHT22;5624;49.388;11.350;2023-07-31T14:23:25;23.70;48.60
11140;DHT22;5624;49.388;11.350;2023-07-31T14:25:50;23.80;50.70
11140;DHT22;5624;49.388;11.350;2023-07-31T14:28:16;23.70;47.80
11140;DHT22;5624;49.388;11.350;2023-07-31T14:30:42;23.70;49.20
11140;DHT22;5624;49.388;11.350;2023-07-31T14:33:07;23.70;48.90
11140;DHT22;5624;49.388;11.350;2023-07-31T14:35:34;23.80;46.90
11140;DHT22;5624;49.388;11.350;2023-07-31T14:37:59;23.90;47.90
11140;DHT22;5624;49.388;11.350;2023-07-31T14:40:25;24.20;48.40
11140;DHT22;5624;49.388;11.350;2023-07-31T14:42:51;24.30;45.60
11140;DHT22;5624;49.388;11.350;2023-07-31T14:45:17;24.40;47.40
11140;DHT22;5624;49.388;11.350;2023-07-31T14:47:43;24.20;45.40
11140;DHT22;5624;49.388;11.350;2023-07-31T14:50:09;24.20;47.20
11140;DHT22;5624;49.388;11.350;2023-07-31T14:52:34;24.20;48.20
11140;DHT22;5624;49.388;11.350;2023-07-31T14:55:00;24.00;46.20
11140;DHT22;5624;49.388;11.350;2023-07-31T14:57:26;23.80;47.40
11140;DHT22;5624;49.388;11.350;2023-07-31T14:59:51;23.60;47.60
11140;DHT22;5624;49.388;11.350;2023-07-31T15:02:17;23.70;48.20
11140;DHT22;5624;49.388;11.350;2023-07-31T15:04:42;23.60;48.20
11140;DHT22;5624;49.388;11.350;2023-07-31T15:07:08;23.50;48.90
11140;DHT22;5624;49.388;11.350;2023-07-31T15:09:34;23.30;49.10
11140;DHT22;5624;49.388;11.350;2023-07-31T15:11:59;23.20;49.50
11140;DHT22;5624;49.388;11.350;2023-07-31T15:14:25;23.10;49.00
11140;DHT22;5624;49.388;11.350;2023-07-31T15:16:53;23.00;50.70
11140;DHT22;5624;49.388;11.350;2023-07-31T15:19:18;23.00;50.10
11140;DHT22;5624;49.388;11.350;2023-07-31T15:21:44;22.90;49.90
11140;DHT22;5624;49.388;11.350;2023-07-31T15:24:09;22.90;50.00
11140;DHT22;5624;49.388;11.350;2023-07-31T15:26:37;22.90;49.60
11140;DHT22;5624;49.388;11.350;2023-07-31T15:29:04;23.00;49.90
11140;DHT22;5624;49.388;11.350;2023-07-31T15:31:45;22.90;49.60
11140;DHT22;5624;49.388;11.350;2023-07-31T15:34:10;22.80;50.00
11140;DHT22;5624;49.388;11.350;2023-07-31T15:36:36;22.70;50.50